Paloma — V7NN4 — position and weather

sailwx.info

Track history (hours):
 
Tides and Currents Weather Stations Pressure Air Temp Water Temp Dewpoint Dewpoint Depression Visibility Wind Speed Wind Dir Waves Ship Positions

Paloma

Last reported at 2018-Feb-17 15:14 UTC. Time now 2018-Feb-22 11:16 UTC.
Position N 35°54' E 014°47'.

Length 169 m; draft 9.6 m.

Type: Cargo ship. MMSI: 538007433.

Date/timePositionNaut miles runAvg speedWind from/ knotsBaromVisibWave heightAir tempDewpointWater temp
2018-Feb-17 15:14N 35°54' E 014°47'0 2.0
2018-Feb-17 15:01N 35°55' E 014°46'0 0.1
2018-Feb-17 14:25N 35°55' E 014°46'0 0.0
2018-Feb-17 13:58N 35°55' E 014°46'0 0.0
2018-Feb-17 13:22N 35°55' E 014°46'0 0.0
2018-Feb-17 12:58N 35°55' E 014°46'0 0.0
2018-Feb-17 12:22N 35°55' E 014°46'0 0.0
2018-Feb-17 11:58N 35°55' E 014°46'0 0.0
2018-Feb-17 07:25N 35°55' E 014°46'0 0.1
2018-Feb-17 06:59N 35°55' E 014°46'0 0.0
2018-Feb-17 06:29N 35°55' E 014°46'0 0.0
2018-Feb-17 05:51N 35°55' E 014°46'0 0.1
2018-Feb-17 05:23N 35°55' E 014°46'2 4.4
2018-Feb-17 05:00N 35°56' E 014°45'8 2.5
2018-Feb-17 01:40N 36°05' E 014°43'0 0.9
2018-Feb-17 01:11N 36°04' E 014°44'9 6.8
2018-Feb-16 23:54N 36°06' E 014°33'511.9
2018-Feb-16 23:31N 36°08' E 014°28'611.7
2018-Feb-16 22:59N 36°11' E 014°21'611.6
2018-Feb-16 22:30N 36°13' E 014°14'611.7
2018-Feb-16 22:00N 36°15' E 014°08'611.8
2018-Feb-16 21:30N 36°18' E 014°01'612.0
2018-Feb-16 21:00N 36°21' E 013°54'611.8
2018-Feb-16 20:30N 36°23' E 013°48'  
2018-Feb-13 17:12N 36°00' W 005°15'314.1
2018-Feb-13 17:00N 35°60' W 005°18'713.6
2018-Feb-13 16:30N 35°58' W 005°26'  
Track history (hours):
 
Tides and Currents Weather Stations Pressure Air Temp Water Temp Dewpoint Dewpoint Depression Visibility Wind Speed Wind Dir Waves Ship Positions

Paloma

Last reported at 2018-Feb-17 15:14 UTC. Time now 2018-Feb-22 11:16 UTC.
Position N 35°54' E 014°47'.

Length 169 m; draft 9.6 m.

Type: Cargo ship. MMSI: 538007433.

Date/timePositionNaut miles runAvg speedWind from/ knotsBaromVisibWave heightAir tempDewpointWater temp
2018-Feb-17 15:14N 35°54' E 014°47'0 2.0
2018-Feb-17 15:01N 35°55' E 014°46'0 0.1
2018-Feb-17 14:25N 35°55' E 014°46'0 0.0
2018-Feb-17 13:58N 35°55' E 014°46'0 0.0
2018-Feb-17 13:22N 35°55' E 014°46'0 0.0
2018-Feb-17 12:58N 35°55' E 014°46'0 0.0
2018-Feb-17 12:22N 35°55' E 014°46'0 0.0
2018-Feb-17 11:58N 35°55' E 014°46'0 0.0
2018-Feb-17 07:25N 35°55' E 014°46'0 0.1
2018-Feb-17 06:59N 35°55' E 014°46'0 0.0
2018-Feb-17 06:29N 35°55' E 014°46'0 0.0
2018-Feb-17 05:51N 35°55' E 014°46'0 0.1
2018-Feb-17 05:23N 35°55' E 014°46'2 4.4
2018-Feb-17 05:00N 35°56' E 014°45'8 2.5
2018-Feb-17 01:40N 36°05' E 014°43'0 0.9
2018-Feb-17 01:11N 36°04' E 014°44'9 6.8
2018-Feb-16 23:54N 36°06' E 014°33'511.9
2018-Feb-16 23:31N 36°08' E 014°28'611.7
2018-Feb-16 22:59N 36°11' E 014°21'611.6
2018-Feb-16 22:30N 36°13' E 014°14'611.7
2018-Feb-16 22:00N 36°15' E 014°08'611.8
2018-Feb-16 21:30N 36°18' E 014°01'612.0
2018-Feb-16 21:00N 36°21' E 013°54'611.8
2018-Feb-16 20:30N 36°23' E 013°48'  
2018-Feb-13 17:12N 36°00' W 005°15'314.1
2018-Feb-13 17:00N 35°60' W 005°18'713.6
2018-Feb-13 16:30N 35°58' W 005°26'  

Dump ship's entire track history